Time;durP1;ratioP1;P1;durP2;ratioP2;P2;SDS_P1;SDS_P2;PMS_P1;PMS_P2;Temp;Humidity;BMP_temperature;BMP_pressure;BME280_temperature;BME280_humidity;BME280_pressure;Samples;Min_cycle;Max_cycle;Signal;HPM_P1;HPM_P2
2022/04/14 10:14:13;;;;;;;18.35;14.52;;;;;;;;;;6174785;23;20036;-90
2022/04/14 10:16:43;;;;;;;15.88;11.60;;;;;;;;;;6122635;23;20023;-92
2022/04/14 10:19:09;;;;;;;18.65;12.30;;;;;;;;;;6101102;23;20009;-90
2022/04/14 10:21:37;;;;;;;11.48;9.35;;;;;;;;;;6125878;23;20529;-91
2022/04/14 10:24:06;;;;;;;12.20;10.00;;;;;;;;;;6127351;23;20092;-91
2022/04/14 10:26:43;;;;;;;18.42;11.38;;;;;;;;;;6125947;23;20084;-91
2022/04/14 10:29:14;;;;;;;14.70;11.15;;;;;;;;;;6126996;23;20009;-90
2022/04/14 10:31:53;;;;;;;16.77;11.45;;;;;;;;;;6127886;23;20059;-91
2022/04/14 10:34:20;;;;;;;17.90;11.45;;;;;;;;;;6124719;23;20020;-88
2022/04/14 10:36:46;;;;;;;16.98;11.60;;;;;;;;;;6126021;23;20092;-88
2022/04/14 10:39:23;;;;;;;13.40;9.43;;;;;;;;;;6127255;23;20032;-88
2022/04/14 10:41:51;;;;;;;14.15;10.60;;;;;;;;;;6127329;23;20064;-89
2022/04/14 10:44:43;;;;;;;14.27;9.70;;;;;;;;;;6123469;23;20024;-89
2022/04/14 10:47:09;;;;;;;12.88;9.43;;;;;;;;;;6124277;23;20025;-91
2022/04/14 10:49:36;;;;;;;14.48;8.57;;;;;;;;;;6125607;23;20017;-91
2022/04/14 10:52:21;;;;;;;14.75;9.18;;;;;;;;;;6127462;23;20017;-90
2022/04/14 10:55:00;;;;;;;10.80;8.25;;;;;;;;;;6129995;23;20016;-90
2022/04/14 10:57:44;;;;;;;10.65;7.85;;;;;;;;;;6129140;23;20332;-91
2022/04/14 11:00:22;;;;;;;9.93;7.20;;;;;;;;;;6129865;23;20096;-91
2022/04/14 11:03:01;;;;;;;10.05;7.57;;;;;;;;;;6127303;23;20024;-90
2022/04/14 11:05:51;;;;;;;10.90;7.25;;;;;;;;;;6127249;23;20644;-90
2022/04/14 11:08:24;;;;;;;13.63;9.30;;;;;;;;;;6127169;23;20446;-90
2022/04/14 11:11:10;;;;;;;16.30;10.15;;;;;;;;;;6129011;23;20084;-89
2022/04/14 11:14:00;;;;;;;10.43;6.78;;;;;;;;;;6120698;23;20076;-87
2022/04/14 11:16:50;;;;;;;13.40;7.03;;;;;;;;;;6099417;23;20045;-93
2022/04/14 11:19:24;;;;;;;8.70;5.80;;;;;;;;;;6087436;23;20441;-89
2022/04/14 11:22:05;;;;;;;9.23;4.95;;;;;;;;;;6107098;23;20020;-91
2022/04/14 11:24:41;;;;;;;8.63;5.05;;;;;;;;;;6105481;23;20069;-89
2022/04/14 11:27:18;;;;;;;6.68;4.70;;;;;;;;;;6102865;23;20021;-91
2022/04/14 11:30:10;;;;;;;10.05;4.30;;;;;;;;;;6101972;23;20024;-89
2022/04/14 11:32:37;;;;;;;7.20;3.55;;;;;;;;;;6120928;23;20009;-89
2022/04/14 11:35:27;;;;;;;8.70;4.25;;;;;;;;;;6095565;23;20021;-89
2022/04/14 11:38:02;;;;;;;10.57;4.45;;;;;;;;;;6119929;23;20018;-90
2022/04/14 11:40:31;;;;;;;8.35;4.38;;;;;;;;;;6093969;23;20013;-90
2022/04/14 11:42:59;;;;;;;7.95;4.90;;;;;;;;;;6096022;23;20028;-92
2022/04/14 11:45:32;;;;;;;6.30;3.42;;;;;;;;;;6097955;23;20840;-91
2022/04/14 11:48:03;;;;;;;4.53;2.75;;;;;;;;;;6098356;23;20062;-87
2022/04/14 11:50:33;;;;;;;5.47;3.05;;;;;;;;;;6092368;23;20074;-90
2022/04/14 11:53:00;;;;;;;5.53;3.08;;;;;;;;;;6094964;23;20080;-89
2022/04/14 11:55:36;;;;;;;8.38;4.30;;;;;;;;;;6094534;23;20013;-89
2022/04/14 11:58:12;;;;;;;8.02;4.20;;;;;;;;;;6095045;23;20014;-90
2022/04/14 12:00:51;;;;;;;7.93;4.03;;;;;;;;;;6099295;23;20017;-90
2022/04/14 12:03:29;;;;;;;4.97;3.40;;;;;;;;;;6097168;23;20022;-91
2022/04/14 12:06:01;;;;;;;8.82;4.00;;;;;;;;;;6098586;23;20017;-92
2022/04/14 12:08:27;;;;;;;6.63;3.40;;;;;;;;;;6101841;23;20009;-86
2022/04/14 12:10:53;;;;;;;7.50;3.20;;;;;;;;;;6095784;23;20048;-87
2022/04/14 12:13:24;;;;;;;8.43;4.20;;;;;;;;;;6107994;23;20021;-90
2022/04/14 12:16:02;;;;;;;8.50;2.70;;;;;;;;;;6122961;23;20017;-92
2022/04/14 12:18:32;;;;;;;6.00;2.63;;;;;;;;;;6123819;23;20017;-92
2022/04/14 12:20:58;;;;;;;5.25;2.50;;;;;;;;;;6125526;23;20635;-89
2022/04/14 12:23:24;;;;;;;7.07;2.03;;;;;;;;;;6121774;23;20022;-90
2022/04/14 12:25:52;;;;;;;3.47;1.85;;;;;;;;;;6119236;23;20399;-88
2022/04/14 12:28:19;;;;;;;5.75;2.20;;;;;;;;;;6118476;23;20346;-92
2022/04/14 12:30:48;;;;;;;5.47;1.50;;;;;;;;;;6124392;23;20072;-91
2022/04/14 12:33:15;;;;;;;4.68;1.73;;;;;;;;;;6124155;23;20018;-89
2022/04/14 12:35:44;;;;;;;4.20;1.70;;;;;;;;;;6119215;23;20096;-89
2022/04/14 12:38:16;;;;;;;3.92;2.00;;;;;;;;;;6120511;23;20065;-87
2022/04/14 12:40:42;;;;;;;;;;;;;;;;;;6146869;23;20032;-90
2022/04/14 12:43:21;;;;;;;8.10;1.90;;;;;;;;;;6121466;23;19922;-89
2022/04/14 12:45:47;;;;;;;5.75;2.30;;;;;;;;;;6123504;23;20073;-91
2022/04/14 12:48:35;;;;;;;4.82;2.10;;;;;;;;;;6123298;23;20100;-91
2022/04/14 12:51:04;;;;;;;5.18;1.98;;;;;;;;;;6126747;23;20009;-92
2022/04/14 12:53:33;;;;;;;6.10;2.35;;;;;;;;;;6127415;23;20017;-91
2022/04/14 12:56:13;;;;;;;3.50;2.13;;;;;;;;;;6124647;23;20028;-91
2022/04/14 12:58:39;;;;;;;6.78;2.40;;;;;;;;;;6123805;23;20014;-92
2022/04/14 13:01:16;;;;;;;4.97;2.28;;;;;;;;;;6120241;23;20112;-89
2022/04/14 13:03:46;;;;;;;6.65;2.38;;;;;;;;;;6121084;23;20099;-90
2022/04/14 13:06:16;;;;;;;5.78;2.28;;;;;;;;;;6116107;23;20017;-88
2022/04/14 13:08:42;;;;;;;5.18;1.90;;;;;;;;;;6117317;23;20014;-89
2022/04/14 13:11:38;;;;;;;6.85;2.15;;;;;;;;;;6119422;23;20010;-88
2022/04/14 13:14:20;;;;;;;7.20;2.55;;;;;;;;;;6142723;23;20092;-89
2022/04/14 13:16:46;;;;;;;;;;;;;;;;;;6121635;23;20064;-89
2022/04/14 13:19:12;;;;;;;5.47;1.75;;;;;;;;;;6117499;23;19920;-87
2022/04/14 13:21:39;;;;;;;2.67;1.50;;;16.90;99.90;;;;;;6119681;23;20024;-89
2022/04/14 13:24:05;;;;;;;5.10;2.00;;;20.00;66.70;;;;;;6120306;23;20758;-92
2022/04/14 13:26:31;;;;;;;6.07;2.53;;;20.00;66.40;;;;;;6123125;23;20034;-89
2022/04/14 13:28:57;;;;;;;5.18;2.50;;;;;;;;;;6098636;23;20214;-88
2022/04/14 13:31:23;;;;;;;5.25;2.40;;;;;;;;;;6119682;23;20013;-89
2022/04/14 13:33:49;;;;;;;4.30;2.35;;;;;;;;;;6118261;23;20017;-87
2022/04/14 13:36:15;;;;;;;4.30;1.90;;;;;;;;;;6122906;23;20455;-88
2022/04/14 13:38:41;;;;;;;9.38;1.90;;;;;;;;;;6121391;23;20014;-90
2022/04/14 13:41:07;;;;;;;4.07;1.95;;;;;;;;;;6121627;23;20017;-90
2022/04/14 13:43:34;;;;;;;7.57;1.88;;;;;;;;;;6119455;23;20532;-90
2022/04/14 13:46:00;;;;;;;5.00;1.50;;;;;;;;;;6119987;23;20269;-89
2022/04/14 13:48:26;;;;;;;6.40;2.28;;;;;;;;;;6119457;23;20092;-91
2022/04/14 13:50:52;;;;;;;5.20;2.10;;;;;;;;;;6122583;23;20017;-90
2022/04/14 13:53:19;;;;;;;4.00;1.52;;;;;;;;;;6121431;23;20028;-91
2022/04/14 13:55:45;;;;;;;6.85;2.38;;;;;;;;;;6123255;23;20021;-92
2022/04/14 13:58:12;;;;;;;6.00;2.35;;;;;;;;;;6125529;23;20021;-92
2022/04/14 14:00:40;;;;;;;3.92;2.08;;;;;;;;;;6125775;23;20048;-91
2022/04/14 14:03:08;;;;;;;6.25;2.97;;;;;;;;;;6125243;23;20024;-90
2022/04/14 14:05:37;;;;;;;6.47;1.70;;;;;;;;;;6126199;23;20017;-90
2022/04/14 14:08:03;;;;;;;6.30;2.25;;;;;;;;;;6126207;23;20013;-91
2022/04/14 14:10:34;;;;;;;9.70;5.22;;;;;;;;;;6123917;23;20013;-92
2022/04/14 14:13:06;;;;;;;9.45;4.47;;;;;;;;;;6117964;23;20052;-90
2022/04/14 14:15:32;;;;;;;7.60;3.28;;;;;;;;;;6095924;23;20045;-90
2022/04/14 14:17:58;;;;;;;12.95;6.40;;;;;;;;;;6098352;23;20075;-90
2022/04/14 14:20:25;;;;;;;11.55;5.88;;;;;;;;;;6101344;23;20025;-91
2022/04/14 14:22:51;;;;;;;12.98;8.43;;;;;;;;;;6100943;23;20014;-87
2022/04/14 14:25:18;;;;;;;6.72;1.50;;;;;;;;;;6101119;23;20038;-91
2022/04/14 14:27:44;;;;;;;4.30;1.48;;;;;;;;;;6101708;23;20013;-88
2022/04/14 14:30:11;;;;;;;5.03;1.50;;;;;;;;;;6101718;23;20093;-90
2022/04/14 14:32:37;;;;;;;4.20;1.33;;;;;;;;;;6101472;23;20014;-89
2022/04/14 14:35:04;;;;;;;4.57;1.13;;;;;;;;;;6100947;23;20010;-90
2022/04/14 14:37:31;;;;;;;4.68;1.45;;;;;;;;;;6100794;23;20013;-91
2022/04/14 14:39:57;;;;;;;4.60;1.27;;;;;;;;;;6100590;23;20013;-91
2022/04/14 14:42:23;;;;;;;5.95;1.67;;;;;;;;;;6100541;23;20013;-88
2022/04/14 14:44:49;;;;;;;6.28;1.55;;;;;;;;;;6101607;23;20493;-91
2022/04/14 14:47:15;;;;;;;5.65;1.70;;;;;;;;;;6100024;23;20350;-90
2022/04/14 14:49:41;;;;;;;5.28;1.50;;;;;;;;;;6099696;23;20076;-88
2022/04/14 14:52:08;;;;;;;3.22;1.27;;;;;;;;;;6101187;23;20048;-89
2022/04/14 14:54:34;;;;;;;7.40;1.38;;;;;;;;;;6101186;23;20324;-91
2022/04/14 14:57:00;;;;;;;3.50;1.40;;;;;;;;;;6099996;23;20323;-89
2022/04/14 14:59:26;;;;;;;6.30;2.22;;;;;;;;;;6098086;23;20418;-89
2022/04/14 15:01:52;;;;;;;3.47;1.15;;;;;;;;;;6098681;23;20048;-91
2022/04/14 15:04:19;;;;;;;5.72;1.67;;;;;;;;;;6100467;23;20442;-90
2022/04/14 15:06:47;;;;;;;5.28;1.38;;;19.80;65.70;;;;;;6102158;23;20146;-89
2022/04/14 15:09:14;;;;;;;4.55;1.52;;;;;;;;;;6123234;23;20063;-89
2022/04/14 15:11:41;;;;;;;3.35;1.30;;;;;;;;;;6099047;23;20393;-89
2022/04/14 15:14:12;;;;;;;4.72;1.65;;;;;;;;;;6139518;23;20346;-88
2022/04/14 15:16:38;;;;;;;5.57;1.60;;;;;;;;;;6125847;23;20023;-92
2022/04/14 15:19:06;;;;;;;5.15;1.50;;;21.40;68.20;;;;;;6128663;23;20488;-88
2022/04/14 15:21:32;;;;;;;5.53;1.52;;;;;;;;;;6133270;23;20489;-89
2022/04/14 15:24:01;;;;;;;5.40;2.10;;;;;;;;;;6131174;23;20027;-90
2022/04/14 15:26:27;;;;;;;7.13;3.55;;;;;;;;;;6134045;23;20048;-89
2022/04/14 15:28:54;;;;;;;8.85;4.82;;;;;;;;;;6132930;23;20036;-87
2022/04/14 15:31:24;;;;;;;11.80;4.80;;;;;;;;;;6130004;23;20020;-88
2022/04/14 15:33:50;;;;;;;13.00;5.80;;;;;;;;;;6130043;23;20091;-89
2022/04/14 15:36:16;;;;;;;29.15;7.10;;;;;;;;;;6129022;23;20013;-89
2022/04/14 15:38:43;;;;;;;15.55;6.78;;;;;;;;;;6127576;23;20023;-89
2022/04/14 15:41:10;;;;;;;11.20;7.10;;;;;;;;;;6131200;23;20017;-90
2022/04/14 15:43:37;;;;;;;12.43;7.10;;;;;;;;;;6126067;23;20013;-88
2022/04/14 15:46:04;;;;;;;20.77;6.63;;;;;;;;;;6127164;23;20016;-88
2022/04/14 15:48:38;;;;;;;12.38;6.28;;;;;;;;;;6127277;23;20009;-91
2022/04/14 15:51:06;;;;;;;11.40;5.90;;;;;;;;;;6127423;23;20104;-89
2022/04/14 15:53:35;;;;;;;13.15;5.68;;;;;;;;;;6127242;23;20013;-89
2022/04/14 15:56:02;;;;;;;10.13;6.32;;;;;;;;;;6127584;23;20009;-88
2022/04/14 15:58:30;;;;;;;10.20;5.72;;;;;;;;;;6122244;23;20016;-89
2022/04/14 16:00:56;;;;;;;10.85;5.60;;;;;;;;;;6123356;23;20738;-90
2022/04/14 16:03:34;;;;;;;13.15;5.13;;;;;;;;;;6126714;23;20347;-89
2022/04/14 16:06:17;;;;;;;9.35;4.82;;;;;;;;;;6130327;23;20402;-87
2022/04/14 16:08:46;;;;;;;10.02;4.88;;;;;;;;;;6126561;23;20764;-88
2022/04/14 16:13:57;;;;;;;9.70;4.38;;;;;;;;;;6112831;23;20070;-89
2022/04/14 16:16:33;;;;;;;12.00;5.30;;;;;;;;;;6097763;23;20028;-89
2022/04/14 16:18:59;;;;;;;10.23;5.43;;;;;;;;;;6097572;23;20074;-88
2022/04/14 16:21:26;;;;;;;10.95;5.22;;;;;;;;;;6096891;23;20025;-89
2022/04/14 16:23:52;;;;;;;7.97;4.95;;;;;;;;;;6098713;23;20371;-87
2022/04/14 16:26:18;;;;;;;10.05;5.45;;;;;;;;;;6100228;23;20367;-89
2022/04/14 16:28:44;;;;;;;11.32;4.75;;;;;;;;;;6098318;23;20013;-89
2022/04/14 16:31:13;;;;;;;8.98;4.15;;;;;;;;;;6099010;23;20088;-88
2022/04/14 16:33:39;;;;;;;8.55;4.47;;;;;;;;;;6101097;23;20025;-90
2022/04/14 16:36:11;;;;;;;7.30;4.50;;;;;;;;;;6100769;23;20018;-88
2022/04/14 16:38:37;;;;;;;9.55;4.72;;;;;;;;;;6100386;23;20071;-87
2022/04/14 16:41:04;;;;;;;9.88;4.93;;;;;;;;;;6100859;23;20105;-88
2022/04/14 16:43:30;;;;;;;5.65;3.88;;;;;;;;;;6099476;23;20048;-88
2022/04/14 16:45:56;;;;;;;10.18;4.60;;;;;;;;;;6101692;23;20563;-88
2022/04/14 16:48:22;;;;;;;8.45;4.22;;;;;;;;;;6101658;23;20010;-88
2022/04/14 16:50:48;;;;;;;11.68;4.50;;;20.20;63.20;;;;;;6099015;23;20048;-88
2022/04/14 16:53:14;;;;;;;8.57;3.88;;;;;;;;;;6124846;23;20022;-88
2022/04/14 16:55:44;;;;;;;12.00;3.88;;;;;;;;;;6103045;23;20088;-87
2022/04/14 16:58:11;;;;;;;9.40;3.03;;;;;;;;;;6100707;23;20053;-88
2022/04/14 17:00:37;;;;;;;9.98;2.92;;;;;;;;;;6100156;23;20521;-89
2022/04/14 17:03:04;;;;;;;7.65;2.53;;;18.60;73.90;;;;;;6099932;23;20018;-87
2022/04/14 17:05:31;;;;;;;11.25;2.78;;;;;;;;;;6120230;23;20091;-88
2022/04/14 17:07:57;;;;;;;6.32;2.80;;;;;;;;;;6099512;23;20025;-87
2022/04/14 17:10:23;;;;;;;5.22;2.38;;;;;;;;;;6096115;23;20041;-87
2022/04/14 17:12:52;;;;;;;6.22;2.67;;;;;;;;;;6107196;23;20499;-86
2022/04/14 17:15:18;;;;;;;8.25;2.40;;;;;;;;;;6127089;23;20020;-88
2022/04/14 17:17:44;;;;;;;7.72;2.83;;;;;;;;;;6123811;23;20553;-89
2022/04/14 17:20:10;;;;;;;5.95;2.95;;;;;;;;;;6127319;23;20048;-88
2022/04/14 17:25:26;;;;;;;7.78;3.42;;;;;;;;;;6146001;23;20025;-87
2022/04/14 17:27:54;;;;;;;5.95;3.45;;;;;;;;;;6099272;23;20081;-87
2022/04/14 17:30:20;;;;;;;6.35;3.80;;;;;;;;;;6099414;23;20017;-87
2022/04/14 17:32:49;;;;;;;7.22;3.38;;;;;;;;;;6099549;23;20021;-87
2022/04/14 17:35:15;;;;;;;8.85;3.50;;;17.80;79.40;;;;;;6097217;23;20044;-86
2022/04/14 17:37:41;;;;;;;15.77;4.50;;;15.90;93.80;;;;;;6074879;23;20458;-87
2022/04/14 17:40:15;;;;;;;9.15;3.97;;;;;;;;;;6099095;23;20013;-87
2022/04/14 17:42:41;;;;;;;6.53;3.75;;;;;;;;;;6097721;23;20010;-87
2022/04/14 17:45:10;;;;;;;10.05;4.43;;;;;;;;;;6097568;23;20096;-88
2022/04/14 17:47:36;;;;;;;8.20;4.18;;;;;;;;;;6098624;23;20084;-87
2022/04/14 17:50:03;;;;;;;10.82;4.70;;;;;;;;;;6099683;23;20010;-87
2022/04/14 17:52:30;;;;;;;8.02;4.25;;;15.70;95.90;;;;;;6098464;23;20044;-87
2022/04/14 17:54:56;;;;;;;9.77;4.90;;;14.60;99.90;;;;;;6098881;23;20742;-87
2022/04/14 17:57:22;;;;;;;8.18;4.35;;;14.40;99.90;;;;;;6098989;23;20054;-87
2022/04/14 17:59:48;;;;;;;10.23;4.40;;;14.30;99.90;;;;;;6074145;23;20017;-86
2022/04/14 18:02:16;;;;;;;10.45;4.72;;;14.20;99.90;;;;;;6097690;23;20459;-87
2022/04/14 18:04:42;;;;;;;8.95;4.72;;;14.00;99.90;;;;;;6097913;23;20022;-89
2022/04/14 18:07:11;;;;;;;9.60;4.45;;;13.90;99.90;;;;;;6098759;23;20422;-87
2022/04/14 18:09:37;;;;;;;13.25;4.65;;;13.80;99.90;;;;;;6074173;23;20017;-88
2022/04/14 18:12:06;;;;;;;10.93;4.80;;;13.60;99.90;;;;;;6099357;23;20021;-88
2022/04/14 18:14:32;;;;;;;13.13;6.30;;;13.50;99.90;;;;;;6070289;23;20516;-86
2022/04/14 18:16:58;;;;;;;16.08;7.22;;;13.30;99.90;;;;;;6092271;23;20519;-88
2022/04/14 18:19:24;;;;;;;13.25;8.80;;;13.10;99.90;;;;;;6048114;23;20026;-88
2022/04/14 18:21:50;;;;;;;15.40;9.60;;;13.00;99.90;;;;;;6093660;23;20034;-87
2022/04/14 18:24:16;;;;;;;15.65;10.60;;;;;;;;;;6069116;23;20014;-88
2022/04/14 18:26:45;;;;;;;14.40;10.60;;;;;;;;;;6069161;23;20518;-87
2022/04/14 18:29:12;;;;;;;16.88;10.43;;;;;;;;;;6067733;23;20026;-87
2022/04/14 18:31:39;;;;;;;16.35;10.80;;;;;;;;;;6066381;23;20518;-88
2022/04/14 18:34:06;;;;;;;16.35;11.52;;;;;;;;;;6068889;23;20018;-88
2022/04/14 18:36:36;;;;;;;16.10;11.93;;;;;;;;;;6066776;23;20014;-88
2022/04/14 18:39:03;;;;;;;20.67;11.68;;;;;;;;;;6069503;23;20010;-89
2022/04/14 18:41:29;;;;;;;16.65;11.02;;;;;;;;;;6069321;23;20021;-89
2022/04/14 18:43:55;;;;;;;20.58;12.35;;;;;;;;;;6070628;23;20014;-88
2022/04/14 18:46:21;;;;;;;18.42;10.85;;;12.90;99.90;;;;;;6071229;23;20678;-88
2022/04/14 18:48:49;;;;;;;17.98;10.85;;;11.50;99.90;;;;;;6046931;23;20014;-88
2022/04/14 18:51:15;;;;;;;17.08;11.05;;;11.30;99.90;;;;;;6049124;23;20093;-89
2022/04/14 18:53:41;;;;;;;19.20;11.02;;;11.10;99.90;;;;;;6024387;23;20056;-87
2022/04/14 18:56:07;;;;;;;16.92;11.02;;;10.90;99.90;;;;;;6072385;23;20014;-89
2022/04/14 18:58:34;;;;;;;22.95;11.93;;;10.90;99.90;;;;;;6046275;23;20026;-88
2022/04/14 19:01:10;;;;;;;17.67;10.43;;;10.70;99.90;;;;;;6025710;23;20013;-89
2022/04/14 19:03:37;;;;;;;18.80;11.35;;;10.60;99.90;;;;;;6073470;23;20538;-87
2022/04/14 19:06:06;;;;;;;20.45;11.13;;;;;;;;;;6071841;23;20010;-88
2022/04/14 19:08:32;;;;;;;23.50;12.30;;;;;;;;;;6068624;23;20092;-87
2022/04/14 19:11:01;;;;;;;15.93;9.98;;;;;;;;;;6070817;23;20028;-88
2022/04/14 19:13:29;;;;;;;18.05;10.52;;;;;;;;;;6095419;23;20013;-89
2022/04/14 19:15:55;;;;;;;20.73;10.57;;;;;;;;;;6099757;23;20018;-88
2022/04/14 19:18:23;;;;;;;17.63;9.90;;;;;;;;;;6098045;23;20096;-88
2022/04/14 19:20:49;;;;;;;21.08;9.93;;;;;;;;;;6099994;23;20018;-89
2022/04/14 19:23:15;;;;;;;17.15;9.75;;;;;;;;;;6100934;23;20478;-89
2022/04/14 19:25:45;;;;;;;18.88;10.10;;;;;;;;;;6100155;23;20045;-87
2022/04/14 19:28:11;;;;;;;23.35;10.13;;;;;;;;;;6095531;23;20029;-89
2022/04/14 19:30:38;;;;;;;19.67;9.85;;;;;;;;;;6099405;23;20017;-88
2022/04/14 19:33:08;;;;;;;23.15;9.23;;;;;;;;;;6099854;23;20949;-88
